Más de esta sección

TAF-AERONAUTICA

                                                               SANTO DOMINGO 02 DE JULIO 2022

                                                                 AEROP. INT. LAS AMERICAS JFPG-

FTDR31 MDSD 022200Z              

TAF

TAF MDPP 022200Z 0300/0400 02020KT 9999 SCT018 BECMG 0301/0303 00000KT=

 

TAF MDST 022200Z 0300/0400 08004KT 9999 SCT018 SCT300 PROB30 0300/0306 7000 -TSRA FEW014CB BKN016 SCT070 =

 

TAF MDPC 022200Z 0300/0400 011015G25KT 9999 FEW016CB BKN018 PROB40 0300/0306 5000 TSRA FEW012CB BKN014 OVC070=

 

TAF MDBH 022200Z 0300/0400 13016KT 9999 FEW020CB FEW026 SCT300 PROB30 0304/0307 8000 RA FEW016CB SCT018 SCT070=

 

TAF MDJB 022200Z 0300/0400 00000KT 9999 SCT016 SCT300 PROB40 0303/0308 6000 TSRA FEW014CB BKN016 BKN070=

 

TAF MDSD 022200Z 0300/0400 04004KT 8000 –RA  FEW016CB SCT018 PROB40 0301/0306 6000 TSRA FEW014CB BKN016 BKN070 BECMG 0306/0308 00000KT=

 

TAF MDLR 022200Z 0300/0400 08010KT 9999 FEW016CB SCT017 BKN300 TEMPO 0300/0306  6000 TSRA FEW014CB BKN015 BKN070 BECMG 0309 / 0311 00000KT=

 

TAF MDCY 022200Z 0300/0400 0912KT 9999 BKN018 SCT070 PROB40 0300/0306 5000 TSRA FEW014CB BKN15 OVC070=

 

MDPP AEROPUERTO INTERNACIONAL LA UNION PUERTO PLATA

MDST AEROPUERTO INTERNACIONAL DE SANTIAGO

MDPC AEROPUERTO INTERNACIONAL PUNTA CANA

MDBH AEROPUERTO INTERNACIONAL DE BARAHONA

MDJB AEROPUERTO INTERNACIONAL JOAQUIN BALAGUER

MDSD AEROPUERTO INTERNACIONAL LAS AMERICAS

MDLR AEROPUERTO INTERNACIONAL LA ROMANA

MDCY AEROPUERTO INTERNACIONAL DE CATEY

 

JONNATHAN FELIZ

MDPP // A.SAUNDERS

MDST // K.VERAS

MDPC // M.FAMILIA

MDBH // A.TEZANOS

MDJB // D.CACERES

MDLR // F.GOMEZ

MDCY // A.LOPEZ